Time;durP1;ratioP1;P1;durP2;ratioP2;P2;SDS_P1;SDS_P2;PMS_P1;PMS_P2;Temp;Humidity;BMP_temperature;BMP_pressure;BME280_temperature;BME280_humidity;BME280_pressure;Samples;Min_cycle;Max_cycle;Signal;HPM_P1;HPM_P2
2023/01/02 00:00:21;;;;;;;38.15;17.45;;;11.10;99.90;;;;;;6193253;23;20043;-86
2023/01/02 00:02:46;;;;;;;41.15;19.40;;;10.10;99.90;;;;;;6204987;23;20040;-85
2023/01/02 00:05:21;;;;;;;36.72;17.08;;;11.50;99.90;;;;;;6209357;23;20000;-87
2023/01/02 00:07:47;;;;;;;35.53;17.75;;;11.40;99.90;;;;;;6159754;23;20023;-85
2023/01/02 00:10:12;;;;;;;37.88;17.77;;;11.10;99.90;;;;;;6160690;23;20087;-86
2023/01/02 00:12:50;;;;;;;35.42;17.75;;;10.40;99.90;;;;;;6186649;23;20445;-86
2023/01/02 00:15:16;;;;;;;32.25;16.75;;;11.60;99.90;;;;;;6185801;23;20524;-86
2023/01/02 00:17:53;;;;;;;39.85;17.17;;;10.20;99.90;;;;;;6186053;23;20055;-86
2023/01/02 00:20:19;;;;;;;38.78;17.13;;;10.70;99.90;;;;;;6186629;23;20013;-86
2023/01/02 00:22:48;;;;;;;34.80;17.35;;;11.30;99.90;;;;;;6187938;23;20098;-86
2023/01/02 00:25:13;;;;;;;34.17;16.40;;;11.20;99.90;;;;;;6159284;23;20020;-86
2023/01/02 00:27:39;;;;;;;37.65;17.10;;;10.20;99.90;;;;;;6186469;23;20096;-86
2023/01/02 00:30:20;;;;;;;31.03;17.30;;;11.80;99.90;;;;;;6163492;23;20020;-87
2023/01/02 00:32:46;;;;;;;38.22;18.50;;;10.20;99.90;;;;;;6159281;23;20024;-86
2023/01/02 00:35:11;;;;;;;37.08;18.30;;;11.60;99.90;;;;;;6159242;23;20513;-86
2023/01/02 00:37:52;;;;;;;39.17;18.15;;;10.50;99.90;;;;;;6193937;23;20049;-86
2023/01/02 00:40:18;;;;;;;34.45;16.98;;;11.10;99.90;;;;;;6161026;23;20406;-86
2023/01/02 00:42:53;;;;;;;33.13;17.42;;;11.60;99.90;;;;;;6159193;23;20044;-86
2023/01/02 00:45:18;;;;;;;34.50;17.20;;;10.30;99.90;;;;;;6159348;23;20096;-86
2023/01/02 00:47:47;;;;;;;34.92;17.30;;;11.40;99.90;;;;;;6152579;23;20099;-86
2023/01/02 00:50:13;;;;;;;32.92;17.92;;;10.40;99.90;;;;;;6185588;23;20020;-86
2023/01/02 00:52:45;;;;;;;31.17;17.08;;;10.40;99.90;;;;;;6158909;23;20025;-86
2023/01/02 00:55:10;;;;;;;33.35;17.58;;;11.90;99.90;;;;;;6184724;23;20013;-86
2023/01/02 00:57:45;;;;;;;33.88;17.40;;;11.70;99.90;;;;;;6160160;23;20479;-86
2023/01/02 01:00:11;;;;;;;31.42;17.10;;;11.60;99.90;;;;;;6158388;23;20021;-86
2023/01/02 01:02:46;;;;;;;28.05;15.13;;;10.50;99.90;;;;;;6159678;23;20027;-86
2023/01/02 01:05:11;;;;;;;28.73;15.30;;;12.00;99.90;;;;;;6158379;23;20025;-86
2023/01/02 01:07:43;;;;;;;27.10;15.50;;;11.80;99.90;;;;;;6166015;23;20028;-86
2023/01/02 01:10:09;;;;;;;25.55;14.27;;;11.00;99.90;;;;;;6128958;23;20338;-86
2023/01/02 01:12:43;;;;;;;25.95;15.00;;;11.50;99.90;;;;;;6155731;23;20079;-86
2023/01/02 01:15:18;;;;;;;26.58;14.02;;;11.50;99.90;;;;;;6137862;23;20014;-86
2023/01/02 01:17:55;;;;;;;24.35;13.70;;;12.30;99.90;;;;;;6156002;23;20720;-86
2023/01/02 01:20:21;;;;;;;23.08;13.93;;;12.40;99.90;;;;;;6155717;23;20053;-86
2023/01/02 01:22:46;;;;;;;26.75;13.85;;;10.80;99.90;;;;;;6129062;23;20017;-86
2023/01/02 01:25:12;;;;;;;23.25;12.98;;;12.10;99.90;;;;;;6129139;23;20021;-86
2023/01/02 01:27:53;;;;;;;21.92;13.13;;;10.90;99.90;;;;;;6129174;23;20450;-87
2023/01/02 01:30:19;;;;;;;22.38;12.00;;;12.50;99.90;;;;;;6155672;23;20024;-86
2023/01/02 01:32:53;;;;;;;23.13;10.93;;;12.30;99.90;;;;;;6155728;23;20018;-86
2023/01/02 01:35:19;;;;;;;22.35;11.13;;;11.60;99.90;;;;;;6128587;23;20013;-86
2023/01/02 01:37:44;;;;;;;21.95;11.27;;;11.70;99.90;;;;;;6155384;23;20465;-86
2023/01/02 01:40:25;;;;;;;22.95;10.05;;;12.10;99.90;;;;;;6128989;23;20025;-86
2023/01/02 01:42:51;;;;;;;20.60;11.00;;;12.30;99.90;;;;;;6129142;23;20092;-86
2023/01/02 01:45:17;;;;;;;22.35;10.93;;;11.90;99.90;;;;;;6131809;23;20089;-86
2023/01/02 01:47:53;;;;;;;20.65;10.52;;;10.90;99.90;;;;;;6155809;23;20695;-86
2023/01/02 01:50:37;;;;;;;22.45;10.27;;;12.40;99.90;;;;;;6169425;23;20395;-86
2023/01/02 01:53:18;;;;;;;;;;;12.40;99.90;;;;;;6131269;23;20017;-86
2023/01/02 01:56:11;;;;;;;20.20;9.77;;;10.90;99.90;;;;;;6150254;23;19920;-86
2023/01/02 01:58:41;;;;;;;21.45;10.60;;;10.90;99.90;;;;;;6128740;23;20022;-86
2023/01/02 02:01:16;;;;;;;22.02;10.63;;;12.00;99.90;;;;;;6155330;23;20021;-86
2023/01/02 02:03:45;;;;;;;20.92;10.85;;;12.40;99.90;;;;;;6128911;23;20056;-86
2023/01/02 02:06:23;;;;;;;22.17;10.30;;;11.60;99.90;;;;;;6128756;23;20346;-86
2023/01/02 02:09:16;;;;;;;21.50;10.77;;;11.70;99.90;;;;;;6185454;23;20021;-86
2023/01/02 02:11:42;;;;;;;18.83;9.48;;;10.90;99.90;;;;;;6162836;23;20085;-86
2023/01/02 02:14:08;;;;;;;17.70;9.25;;;12.50;99.90;;;;;;6185439;23;20021;-86
2023/01/02 02:16:57;;;;;;;17.55;9.07;;;12.20;99.90;;;;;;6158653;23;20464;-86
2023/01/02 02:19:41;;;;;;;19.63;9.93;;;12.40;99.90;;;;;;6137318;23;20454;-86
2023/01/02 02:22:44;;;;;;;20.42;8.88;;;12.20;99.90;;;;;;6157142;23;20037;-86
2023/01/02 02:25:32;;;;;;;19.42;9.13;;;11.10;99.90;;;;;;6162608;23;20017;-86
2023/01/02 02:28:32;;;;;;;18.60;8.25;;;11.00;99.90;;;;;;6130940;23;20097;-86
2023/01/02 02:31:37;;;;;;;20.30;8.57;;;11.70;99.90;;;;;;6155376;23;20119;-86
2023/01/02 02:34:33;;;;;;;18.02;8.95;;;11.00;99.90;;;;;;6129027;23;20018;-86
2023/01/02 02:37:29;;;;;;;20.17;9.02;;;11.00;99.90;;;;;;6129609;23;20401;-87
2023/01/02 02:40:38;;;;;;;17.98;8.52;;;11.10;99.90;;;;;;6154830;23;20022;-86
2023/01/02 02:43:34;;;;;;;20.15;8.40;;;11.00;99.90;;;;;;6129095;23;20025;-86
2023/01/02 02:46:29;;;;;;;17.95;8.32;;;11.10;99.90;;;;;;6128451;23;20048;-86
2023/01/02 02:49:28;;;;;;;19.50;8.27;;;11.20;99.90;;;;;;6128910;23;20029;-86
2023/01/02 02:52:20;;;;;;;17.15;8.52;;;11.20;99.90;;;;;;6131791;23;20021;-86
2023/01/02 02:55:11;;;;;;;16.23;8.13;;;11.90;99.90;;;;;;6187226;23;20017;-86
2023/01/02 02:57:39;;;;;;;17.55;7.93;;;11.10;99.90;;;;;;6187296;23;20019;-86
2023/01/02 03:00:22;;;;;;;20.95;8.20;;;11.50;99.90;;;;;;6161361;23;20017;-87
2023/01/02 03:02:59;;;;;;;14.65;6.97;;;12.50;99.90;;;;;;6197789;23;20341;-86
2023/01/02 03:05:51;;;;;;;17.77;8.02;;;12.50;99.90;;;;;;6164668;23;20394;-85
2023/01/02 03:09:09;;;;;;;21.45;8.95;;;11.20;99.90;;;;;;6210209;23;20029;-86
2023/01/02 03:12:08;;;;;;;20.88;7.68;;;12.10;99.90;;;;;;6159895;23;20021;-86
2023/01/02 03:15:12;;;;;;;18.52;7.97;;;11.20;99.90;;;;;;6160181;23;20015;-86
2023/01/02 03:18:07;;;;;;;21.73;8.03;;;11.20;99.90;;;;;;6160243;23;20081;-86
2023/01/02 03:21:28;;;;;;;21.75;8.10;;;11.30;99.90;;;;;;6161346;23;20252;-86
2023/01/02 03:23:57;;;;;;;17.73;8.27;;;11.20;99.90;;;;;;6071444;23;20455;-86
2023/01/02 03:26:42;;;;;;;20.45;8.30;;;12.30;99.90;;;;;;6096136;23;20025;-85
2023/01/02 03:29:33;;;;;;;21.90;8.88;;;11.20;99.90;;;;;;6160446;23;20024;-85
2023/01/02 03:32:22;;;;;;;17.15;7.93;;;11.10;99.90;;;;;;6159885;23;20025;-85
2023/01/02 03:35:08;;;;;;;18.83;7.78;;;11.20;99.90;;;;;;6159581;23;20468;-86
2023/01/02 03:37:36;;;;;;;17.55;8.00;;;12.40;99.90;;;;;;6170477;23;20048;-86
2023/01/02 03:40:25;;;;;;;18.33;8.48;;;12.60;99.90;;;;;;6186800;23;20009;-86
2023/01/02 03:43:24;;;;;;;18.67;7.80;;;10.40;99.90;;;;;;6159506;23;20017;-86
2023/01/02 03:46:09;;;;;;;17.48;7.72;;;11.10;99.90;;;;;;6159667;23;20058;-85
2023/01/02 03:49:03;;;;;;;18.08;8.10;;;11.20;99.90;;;;;;6186503;23;20036;-85
2023/01/02 03:51:33;;;;;;;19.17;8.15;;;11.30;99.90;;;;;;6159437;23;20023;-85
2023/01/02 03:54:15;;;;;;;17.60;8.15;;;12.60;99.90;;;;;;6160367;23;20373;-86
2023/01/02 03:56:55;;;;;;;16.52;7.78;;;11.00;99.90;;;;;;6159471;23;20017;-86
2023/01/02 04:00:00;;;;;;;18.02;7.97;;;11.30;99.90;;;;;;6159965;23;20021;-86
2023/01/02 04:02:51;;;;;;;17.08;8.10;;;11.30;99.90;;;;;;6162322;23;20013;-86
2023/01/02 04:05:33;;;;;;;15.75;7.78;;;11.40;99.90;;;;;;6159570;23;20056;-86
2023/01/02 04:08:19;;;;;;;17.75;8.63;;;11.20;99.90;;;;;;6187376;23;20397;-85
2023/01/02 04:13:49;;;;;;;19.42;8.73;;;12.70;99.90;;;;;;6091051;23;20368;-86
2023/01/02 04:16:23;;;;;;;18.15;8.05;;;12.80;99.90;;;;;;6186197;23;20017;-86
2023/01/02 04:19:06;;;;;;;21.23;9.15;;;11.30;99.90;;;;;;6159357;23;20446;-86
2023/01/02 04:21:35;;;;;;;19.23;8.50;;;12.80;99.90;;;;;;6159211;23;20067;-86
2023/01/02 04:24:20;;;;;;;18.85;8.35;;;12.90;99.90;;;;;;6158896;23;20248;-86
2023/01/02 04:27:06;;;;;;;19.17;8.30;;;11.40;99.90;;;;;;6185760;23;20515;-86
2023/01/02 04:29:47;;;;;;;19.75;8.52;;;11.70;99.90;;;;;;6186085;23;20067;-85
2023/01/02 04:32:37;;;;;;;17.20;8.20;;;11.30;99.90;;;;;;6159011;23;20349;-86
2023/01/02 04:35:29;;;;;;;16.27;7.55;;;12.30;99.90;;;;;;6159471;23;20087;-86
2023/01/02 04:37:54;;;;;;;17.73;8.05;;;11.40;99.90;;;;;;6158567;23;20456;-86
2023/01/02 04:40:30;;;;;;;18.58;8.07;;;10.90;99.90;;;;;;6154174;23;20099;-86
2023/01/02 04:42:56;;;;;;;16.27;7.65;;;12.80;99.90;;;;;;6186250;23;20028;-86
2023/01/02 04:48:44;;;;;;;17.45;7.65;;;11.50;99.90;;;;;;6190717;23;20052;-87
2023/01/02 04:51:10;;;;;;;14.55;7.63;;;11.60;99.90;;;;;;6160591;23;20013;-86
2023/01/02 04:53:36;;;;;;;17.30;7.68;;;12.90;99.90;;;;;;6161930;23;20051;-86
2023/01/02 04:56:01;;;;;;;15.98;7.50;;;12.40;99.90;;;;;;6158953;23;20017;-86
2023/01/02 04:58:40;;;;;;;14.75;7.50;;;11.50;99.90;;;;;;6184624;23;20465;-86
2023/01/02 05:01:24;;;;;;;20.50;7.78;;;13.10;99.90;;;;;;6186854;23;20017;-86
2023/01/02 05:03:51;;;;;;;15.98;7.53;;;12.40;99.90;;;;;;6185256;23;20021;-86
2023/01/02 05:06:20;;;;;;;16.83;7.05;;;13.00;99.90;;;;;;6184038;23;20456;-86
2023/01/02 05:08:48;;;;;;;16.83;7.60;;;12.00;99.90;;;;;;6184666;23;20496;-86
2023/01/02 05:11:18;;;;;;;20.25;8.38;;;11.60;99.90;;;;;;6158710;23;20345;-86
2023/01/02 05:13:50;;;;;;;21.88;7.95;;;12.30;99.90;;;;;;6158441;23;20017;-86
2023/01/02 05:16:16;;;;;;;16.52;7.75;;;11.00;99.90;;;;;;6158099;23;20013;-86
2023/01/02 05:18:47;;;;;;;17.52;7.50;;;12.90;99.90;;;;;;6185702;23;20093;-85
2023/01/02 05:24:06;;;;;;;15.18;7.50;;;13.20;99.90;;;;;;6165743;23;20021;-85
2023/01/02 05:26:47;;;;;;;16.05;7.70;;;11.60;99.90;;;;;;6161712;23;20024;-86
2023/01/02 05:29:12;;;;;;;15.95;7.78;;;13.10;99.90;;;;;;6158998;23;20021;-86
2023/01/02 05:31:38;;;;;;;15.68;8.15;;;12.40;99.90;;;;;;6185943;23;20009;-86
2023/01/02 05:34:16;;;;;;;18.08;7.68;;;13.10;99.90;;;;;;6185202;23;20017;-86
2023/01/02 05:36:42;;;;;;;16.88;7.25;;;13.00;99.90;;;;;;6158754;23;20075;-86
2023/01/02 05:39:18;;;;;;;17.98;8.20;;;13.10;99.90;;;;;;6158740;23;20316;-86
2023/01/02 05:41:44;;;;;;;16.10;8.07;;;11.50;99.90;;;;;;6158631;23;20020;-86
2023/01/02 05:44:14;;;;;;;17.42;7.90;;;13.10;99.90;;;;;;6174291;23;20023;-86
2023/01/02 05:46:55;;;;;;;17.88;7.82;;;12.90;99.90;;;;;;6129394;23;20018;-86
2023/01/02 05:49:39;;;;;;;16.80;8.00;;;11.60;99.90;;;;;;6129094;23;20076;-86
2023/01/02 05:52:04;;;;;;;17.67;7.47;;;11.60;99.90;;;;;;6156407;23;20316;-87
2023/01/02 05:54:45;;;;;;;17.20;8.10;;;13.10;99.90;;;;;;6155589;23;20040;-86
2023/01/02 05:57:11;;;;;;;18.05;7.80;;;12.00;99.90;;;;;;6152356;23;20017;-87
2023/01/02 05:59:37;;;;;;;15.30;7.53;;;13.00;99.90;;;;;;6160111;23;20383;-86
2023/01/02 06:02:12;;;;;;;17.40;7.72;;;11.60;99.90;;;;;;6166041;23;20020;-87
2023/01/02 06:04:58;;;;;;;14.95;7.68;;;11.60;99.90;;;;;;6158834;23;20140;-87
2023/01/02 06:07:36;;;;;;;15.82;7.30;;;12.80;99.90;;;;;;6158098;23;20419;-86
2023/01/02 06:10:01;;;;;;;16.38;8.07;;;12.90;99.90;;;;;;6157940;23;20469;-87
2023/01/02 06:12:27;;;;;;;17.67;7.40;;;11.50;99.90;;;;;;6179184;23;19997;-87
2023/01/02 06:14:56;;;;;;;15.15;7.97;;;12.70;99.90;;;;;;6200348;23;20092;-87
2023/01/02 06:17:40;;;;;;;16.95;6.72;;;12.60;99.90;;;;;;6185579;23;20017;-87
2023/01/02 06:20:24;;;;;;;16.92;7.60;;;12.80;99.90;;;;;;6185729;23;20017;-86
2023/01/02 06:23:08;;;;;;;18.70;7.63;;;11.60;99.90;;;;;;6159439;23;20016;-87
2023/01/02 06:25:34;;;;;;;16.70;7.13;;;11.60;99.90;;;;;;6158657;23;20021;-87
2023/01/02 06:28:03;;;;;;;17.90;6.95;;;12.80;99.90;;;;;;6158362;23;20021;-86
2023/01/02 06:30:29;;;;;;;16.23;7.25;;;10.70;99.90;;;;;;6185463;23;20017;-87
2023/01/02 06:32:57;;;;;;;15.18;7.32;;;11.60;99.90;;;;;;6184830;23;20024;-87
2023/01/02 06:35:32;;;;;;;14.73;6.78;;;11.40;99.90;;;;;;6181304;23;20025;-87
2023/01/02 06:38:13;;;;;;;15.77;6.78;;;11.80;99.90;;;;;;6161807;23;20009;-87
2023/01/02 06:40:59;;;;;;;14.00;6.50;;;13.20;99.90;;;;;;6185104;23;20013;-87
2023/01/02 06:43:33;;;;;;;16.75;6.90;;;13.10;99.90;;;;;;6158298;23;20075;-86
2023/01/02 06:46:20;;;;;;;16.88;7.03;;;12.80;99.90;;;;;;6184870;23;20013;-87
2023/01/02 06:48:47;;;;;;;14.52;7.30;;;12.80;99.90;;;;;;6158610;23;20024;-87
2023/01/02 06:51:25;;;;;;;14.90;6.65;;;12.60;99.90;;;;;;6158386;23;20021;-86
2023/01/02 06:53:51;;;;;;;12.73;6.28;;;11.70;99.90;;;;;;6158462;23;20047;-86
2023/01/02 06:56:25;;;;;;;12.77;6.38;;;12.30;99.90;;;;;;6157946;23;20017;-87
2023/01/02 06:58:51;;;;;;;15.55;6.88;;;13.00;99.90;;;;;;6157823;23;20028;-87
2023/01/02 07:01:20;;;;;;;15.13;6.25;;;13.00;99.90;;;;;;6158330;23;20017;-86
2023/01/02 07:03:58;;;;;;;13.25;6.57;;;13.30;99.90;;;;;;6185466;23;20020;-87
2023/01/02 07:06:42;;;;;;;16.48;7.07;;;13.00;99.90;;;;;;6158209;23;20025;-87
2023/01/02 07:09:07;;;;;;;13.73;7.15;;;11.70;99.90;;;;;;6184668;23;20091;-86
2023/01/02 07:11:45;;;;;;;13.70;7.03;;;13.00;99.90;;;;;;6185472;23;20025;-86
2023/01/02 07:14:26;;;;;;;15.25;6.68;;;12.60;99.90;;;;;;6185085;23;20381;-87
2023/01/02 07:17:10;;;;;;;14.40;6.80;;;13.10;99.90;;;;;;6158304;23;20039;-86
2023/01/02 07:19:48;;;;;;;12.00;5.90;;;13.10;99.90;;;;;;6157973;23;20063;-86
2023/01/02 07:22:13;;;;;;;13.98;6.82;;;12.70;99.90;;;;;;6184655;23;20072;-86
2023/01/02 07:25:00;;;;;;;16.95;7.18;;;13.30;99.90;;;;;;6180038;23;20021;-87
2023/01/02 07:27:35;;;;;;;18.38;7.82;;;11.80;99.90;;;;;;6183908;23;20090;-85
2023/01/02 07:30:22;;;;;;;14.52;7.13;;;11.60;99.90;;;;;;6158081;23;20100;-85
2023/01/02 07:33:05;;;;;;;15.98;7.47;;;13.10;99.90;;;;;;6184363;23;20334;-87
2023/01/02 07:35:49;;;;;;;18.13;7.45;;;12.90;99.90;;;;;;6156834;23;20013;-87
2023/01/02 07:38:24;;;;;;;16.77;7.68;;;13.20;99.90;;;;;;6184839;23;20450;-87
2023/01/02 07:41:02;;;;;;;38.13;19.63;;;13.10;99.90;;;;;;6189585;23;20017;-84
2023/01/02 07:43:27;;;;;;;18.90;10.77;;;11.50;99.90;;;;;;6159441;23;20017;-84
2023/01/02 07:47:04;;;;;;;25.65;15.25;;;13.10;99.90;;;;;;6182428;23;20037;-84
2023/01/02 07:49:30;;;;;;;18.42;11.57;;;11.30;99.90;;;;;;6158776;23;20512;-86
2023/01/02 07:52:09;;;;;;;16.63;9.85;;;12.90;99.90;;;;;;6159616;23;20025;-85
2023/01/02 07:54:41;;;;;;;10.43;4.10;;;11.10;99.90;;;;;;6159251;23;20079;-84
2023/01/02 07:57:06;;;;;;;13.18;7.28;;;12.60;99.90;;;;;;6185722;23;20048;-85
2023/01/02 07:59:32;;;;;;;11.60;6.95;;;12.30;99.90;;;;;;6160226;23;20013;-84
2023/01/02 08:01:57;;;;;;;18.85;10.25;;;10.90;99.90;;;;;;6160119;23;20513;-84
2023/01/02 08:04:23;;;;;;;46.25;27.23;;;11.40;99.90;;;;;;6161441;23;20104;-84
2023/01/02 08:07:04;;;;;;;17.00;9.27;;;10.60;99.90;;;;;;6186527;23;20021;-84
2023/01/02 08:09:46;;;;;;;54.60;33.13;;;10.50;99.90;;;;;;6185840;23;20434;-85
2023/01/02 08:12:32;;;;;;;54.08;34.95;;;10.50;99.90;;;;;;6162477;23;20016;-85
2023/01/02 08:15:16;;;;;;;12.55;7.18;;;10.60;99.90;;;;;;6159436;23;20473;-85
2023/01/02 08:17:51;;;;;;;64.20;36.70;;;10.20;99.90;;;;;;6159226;23;20044;-85
2023/01/02 08:20:26;;;;;;;63.28;35.50;;;11.20;99.90;;;;;;6158915;23;20017;-85
2023/01/02 08:22:54;;;;;;;38.78;24.25;;;11.40;99.90;;;;;;6159721;23;20442;-85
2023/01/02 08:25:32;;;;;;;29.23;21.55;;;11.30;99.90;;;;;;6159008;23;20464;-85
2023/01/02 08:27:57;;;;;;;13.50;8.00;;;8.90;99.90;;;;;;6186100;23;20021;-86
2023/01/02 08:30:23;;;;;;;19.00;12.43;;;10.50;99.90;;;;;;6185710;23;20464;-85
2023/01/02 08:33:01;;;;;;;20.30;15.13;;;11.10;99.90;;;;;;6159500;23;20028;-85
2023/01/02 08:35:26;;;;;;;18.15;12.25;;;11.30;99.90;;;;;;6159157;23;20453;-85
2023/01/02 08:37:58;;;;;;;20.52;13.70;;;10.80;99.90;;;;;;6158975;23;20021;-85
2023/01/02 08:40:27;;;;;;;23.63;14.70;;;10.70;99.90;;;;;;6158642;23;20021;-85
2023/01/02 08:43:08;;;;;;;18.77;11.50;;;10.30;99.90;;;;;;6159333;23;20091;-85
2023/01/02 08:45:34;;;;;;;14.13;7.70;;;10.90;99.90;;;;;;6158979;23;20013;-85
2023/01/02 08:48:15;;;;;;;14.98;8.75;;;10.00;99.90;;;;;;6185794;23;20372;-85
2023/01/02 08:50:52;;;;;;;10.07;4.60;;;10.30;99.90;;;;;;6159017;23;20100;-85
2023/01/02 08:53:18;;;;;;;17.58;9.35;;;9.20;99.90;;;;;;6159154;23;20117;-85
2023/01/02 08:55:44;;;;;;;10.32;4.88;;;9.90;99.90;;;;;;6185363;23;20052;-85
2023/01/02 08:58:10;;;;;;;14.13;8.23;;;9.50;99.90;;;;;;6184882;23;20025;-86
2023/01/02 09:00:38;;;;;;;12.93;7.05;;;10.40;99.90;;;;;;6186584;23;20056;-86
2023/01/02 09:03:13;;;;;;;15.75;9.05;;;10.40;99.90;;;;;;6159739;23;20017;-87
2023/01/02 09:05:50;;;;;;;17.98;11.20;;;10.80;99.90;;;;;;6184268;23;20013;-85
2023/01/02 09:08:16;;;;;;;12.35;5.22;;;10.30;99.90;;;;;;6185030;23;20020;-85
2023/01/02 09:10:50;;;;;;;19.83;10.83;;;10.40;99.90;;;;;;6187085;23;20017;-85
2023/01/02 09:13:16;;;;;;;17.20;8.53;;;9.90;99.90;;;;;;6186469;23;20013;-84
2023/01/02 09:15:48;;;;;;;18.80;10.70;;;8.90;99.90;;;;;;6188380;23;20056;-84
2023/01/02 09:18:32;;;;;;;10.82;4.82;;;9.50;99.90;;;;;;6194923;23;20017;-87
2023/01/02 09:21:03;;;;;;;;;;;8.00;99.90;;;;;;6183274;23;20017;-87
2023/01/02 09:23:36;;;;;;;16.42;9.30;;;8.80;99.90;;;;;;6159363;23;19920;-86
2023/01/02 09:26:06;;;;;;;17.15;9.55;;;8.80;99.90;;;;;;6185214;23;20103;-85
2023/01/02 09:28:33;;;;;;;12.45;4.80;;;8.70;99.90;;;;;;6187175;23;20063;-85
2023/01/02 09:30:59;;;;;;;16.45;9.93;;;9.60;99.90;;;;;;6160904;23;20067;-85
2023/01/02 09:33:25;;;;;;;14.57;8.25;;;9.50;99.90;;;;;;6160396;23;20021;-85
2023/01/02 09:35:50;;;;;;;15.68;10.38;;;9.60;99.90;;;;;;6161126;23;20013;-85
2023/01/02 09:38:19;;;;;;;14.27;9.90;;;9.30;99.90;;;;;;6188695;23;20384;-86
2023/01/02 09:40:58;;;;;;;17.95;10.07;;;9.10;99.90;;;;;;6158260;23;20446;-83
2023/01/02 09:43:51;;;;;;;16.67;9.27;;;8.50;99.90;;;;;;6184814;23;20027;-83
2023/01/02 09:46:43;;;;;;;23.63;13.80;;;8.50;99.90;;;;;;6162530;23;20013;-84
2023/01/02 09:49:19;;;;;;;19.05;12.55;;;9.80;99.90;;;;;;6097246;23;20028;-85
2023/01/02 09:51:45;;;;;;;12.95;6.60;;;9.60;99.90;;;;;;6185254;23;20434;-85
2023/01/02 09:54:21;;;;;;;32.75;22.02;;;9.60;99.90;;;;;;6157046;23;20021;-83
2023/01/02 09:56:58;;;;;;;12.80;5.30;;;9.50;99.90;;;;;;6158491;23;20465;-82
2023/01/02 09:59:49;;;;;;;19.50;11.50;;;8.50;99.90;;;;;;6184855;23;20016;-82
2023/01/02 10:02:42;;;;;;;25.98;16.58;;;8.40;99.90;;;;;;6184279;23;20366;-82
2023/01/02 10:05:47;;;;;;;22.30;17.58;;;8.50;99.90;;;;;;6158295;23;20513;-82
2023/01/02 10:08:27;;;;;;;18.00;10.23;;;8.50;99.90;;;;;;6184251;23;20021;-82
2023/01/02 10:11:32;;;;;;;22.42;13.40;;;8.50;99.90;;;;;;6185097;23;20021;-83
2023/01/02 10:13:59;;;;;;;18.00;12.02;;;8.50;99.90;;;;;;6115031;23;20025;-83
2023/01/02 10:16:30;;;;;;;12.40;5.78;;;8.60;99.90;;;;;;6184250;23;20036;-83
2023/01/02 10:18:59;;;;;;;11.02;6.00;;;8.50;99.90;;;;;;6158570;23;20512;-83
2023/01/02 10:21:30;;;;;;;11.43;6.32;;;8.50;99.90;;;;;;6178805;23;20516;-82
2023/01/02 10:24:03;;;;;;;10.32;4.40;;;8.50;99.90;;;;;;6158078;23;20017;-82
2023/01/02 10:26:34;;;;;;;10.70;3.63;;;8.50;99.90;;;;;;6184685;23;20068;-83
2023/01/02 10:29:19;;;;;;;9.70;4.00;;;8.50;99.90;;;;;;6185535;23;20020;-83
2023/01/02 10:32:05;;;;;;;18.55;9.15;;;8.50;99.90;;;;;;6184810;23;20028;-83
2023/01/02 10:34:48;;;;;;;15.25;7.50;;;8.50;99.90;;;;;;6158450;23;20461;-83
2023/01/02 10:37:15;;;;;;;14.30;8.00;;;8.50;99.90;;;;;;6157811;23;20028;-83
2023/01/02 10:39:47;;;;;;;10.85;3.78;;;9.10;99.90;;;;;;6158290;23;20021;-83
2023/01/02 10:42:16;;;;;;;16.75;7.60;;;8.50;99.90;;;;;;6158239;23;20449;-83
2023/01/02 10:44:44;;;;;;;12.00;5.78;;;8.60;99.90;;;;;;6184056;23;20080;-83
2023/01/02 10:47:20;;;;;;;10.80;5.28;;;8.60;99.90;;;;;;6157810;23;20386;-83
2023/01/02 10:49:47;;;;;;;11.02;5.00;;;9.60;99.90;;;;;;6185515;23;20010;-85
2023/01/02 10:52:33;;;;;;;10.80;4.40;;;9.80;99.90;;;;;;6157137;23;20015;-83
2023/01/02 10:54:59;;;;;;;10.23;3.72;;;8.50;99.90;;;;;;6184326;23;20504;-83
2023/01/02 10:57:45;;;;;;;9.35;3.70;;;9.90;99.90;;;;;;6157055;23;20013;-83
2023/01/02 11:00:16;;;;;;;9.70;3.78;;;8.50;99.90;;;;;;6184414;23;20024;-83
2023/01/02 11:02:49;;;;;;;9.70;4.00;;;8.50;99.90;;;;;;6185140;23;20021;-83
2023/01/02 11:05:23;;;;;;;9.90;3.83;;;8.50;99.90;;;;;;6157715;23;20048;-83
2023/01/02 11:07:50;;;;;;;10.90;4.03;;;8.50;99.90;;;;;;6157742;23;20021;-83
2023/01/02 11:10:33;;;;;;;9.52;3.75;;;9.70;99.90;;;;;;6184337;23;20043;-83
2023/01/02 11:13:10;;;;;;;9.63;3.53;;;8.60;99.90;;;;;;6161145;23;20013;-83
2023/01/02 11:15:55;;;;;;;12.15;6.00;;;8.60;99.90;;;;;;6160279;23;20477;-82
2023/01/02 11:18:33;;;;;;;8.38;3.00;;;8.70;99.90;;;;;;6160437;23;20087;-83
2023/01/02 11:21:04;;;;;;;9.07;3.05;;;9.30;99.90;;;;;;6162158;23;20382;-83
2023/01/02 11:23:35;;;;;;;8.93;3.10;;;8.70;99.90;;;;;;6186891;23;20044;-84
2023/01/02 11:26:03;;;;;;;8.93;3.08;;;9.20;99.90;;;;;;6159686;23;20017;-83
2023/01/02 11:28:33;;;;;;;8.48;3.17;;;9.10;99.90;;;;;;6159899;23;20045;-83
2023/01/02 11:31:06;;;;;;;9.00;3.00;;;8.80;99.90;;;;;;6184447;23;20087;-83
2023/01/02 11:33:34;;;;;;;8.82;3.08;;;8.80;99.90;;;;;;6159204;23;20045;-84
2023/01/02 11:36:02;;;;;;;8.93;2.60;;;8.90;99.90;;;;;;6159378;23;20500;-85
2023/01/02 11:38:52;;;;;;;9.15;3.35;;;8.90;99.90;;;;;;6159730;23;20020;-84
2023/01/02 11:44:44;;;;;;;13.02;5.68;;;8.80;99.90;;;;;;6069854;23;20356;-85
2023/01/02 11:47:11;;;;;;;9.38;3.40;;;9.60;99.90;;;;;;6093982;23;20022;-85
2023/01/02 11:49:49;;;;;;;12.25;5.13;;;9.90;99.90;;;;;;6094950;23;20022;-84
2023/01/02 11:52:58;;;;;;;27.55;14.70;;;8.30;99.90;;;;;;6088481;23;20040;-86
2023/01/02 11:55:51;;;;;;;28.40;16.40;;;8.80;99.90;;;;;;6112723;23;20045;-84
2023/01/02 11:59:01;;;;;;;24.10;12.77;;;8.80;99.90;;;;;;6159302;23;20488;-82
2023/01/02 12:02:04;;;;;;;37.67;21.50;;;8.80;99.90;;;;;;6185391;23;20017;-82
2023/01/02 12:04:30;;;;;;;9.53;3.97;;;8.90;99.90;;;;;;6158940;23;20016;-85
2023/01/02 12:08:07;;;;;;;13.37;6.40;;;9.30;99.90;;;;;;6159772;23;20028;-85
2023/01/02 12:10:53;;;;;;;25.35;15.00;;;8.50;99.90;;;;;;6040967;23;20041;-84
2023/01/02 12:13:40;;;;;;;18.80;9.13;;;8.30;99.90;;;;;;6159851;23;20009;-83
2023/01/02 12:16:33;;;;;;;15.07;8.40;;;8.70;99.90;;;;;;6158880;23;20017;-82
2023/01/02 12:19:36;;;;;;;15.82;8.05;;;8.80;99.90;;;;;;6159802;23;20052;-83
2023/01/02 12:22:20;;;;;;;12.77;6.80;;;8.80;99.90;;;;;;6198834;23;20079;-83
2023/01/02 12:25:23;;;;;;;26.13;13.60;;;8.80;99.90;;;;;;6160740;23;20044;-83
2023/01/02 12:28:08;;;;;;;17.17;8.43;;;8.80;99.90;;;;;;6160392;23;20445;-83
2023/01/02 12:30:37;;;;;;;15.52;8.88;;;8.80;99.90;;;;;;6185760;23;20100;-82
2023/01/02 12:33:51;;;;;;;15.45;7.65;;;9.90;99.90;;;;;;6159511;23;20016;-83
2023/01/02 12:36:31;;;;;;;21.40;11.70;;;8.80;99.90;;;;;;6065062;23;20090;-82
2023/01/02 12:39:15;;;;;;;16.17;7.82;;;8.80;99.90;;;;;;6146412;23;20033;-82
2023/01/02 12:42:08;;;;;;;14.15;7.18;;;9.70;99.90;;;;;;6186236;23;20017;-83
2023/01/02 12:44:49;;;;;;;24.25;11.55;;;8.90;99.90;;;;;;6158466;23;20120;-82
2023/01/02 12:47:35;;;;;;;16.20;7.15;;;8.90;99.90;;;;;;6189755;23;20020;-83
2023/01/02 12:50:25;;;;;;;22.20;11.52;;;8.80;99.90;;;;;;6158801;23;20115;-83
2023/01/02 12:52:59;;;;;;;18.38;9.68;;;8.90;99.90;;;;;;6153196;23;20016;-83
2023/01/02 12:55:46;;;;;;;23.10;13.10;;;8.90;99.90;;;;;;6160820;23;20101;-82
2023/01/02 12:58:28;;;;;;;14.10;6.03;;;8.80;99.90;;;;;;6158026;23;20042;-83
2023/01/02 13:01:00;;;;;;;12.35;5.03;;;8.80;99.90;;;;;;6185237;23;20377;-83
2023/01/02 13:03:44;;;;;;;14.68;6.40;;;8.80;99.90;;;;;;6185345;23;20486;-84
2023/01/02 13:06:39;;;;;;;65.03;44.03;;;8.80;99.90;;;;;;6157890;23;20334;-84
2023/01/02 13:09:22;;;;;;;35.78;28.48;;;8.80;99.90;;;;;;6156377;23;20021;-84
2023/01/02 13:11:52;;;;;;;33.08;27.73;;;8.80;99.90;;;;;;6159774;23;20017;-84
2023/01/02 13:14:22;;;;;;;20.92;12.57;;;9.30;99.90;;;;;;6185213;23;20035;-84
2023/01/02 13:17:08;;;;;;;13.93;5.20;;;8.80;99.90;;;;;;6161452;23;20013;-84
2023/01/02 13:19:52;;;;;;;13.60;6.03;;;8.80;99.90;;;;;;6184728;23;20047;-84
2023/01/02 13:22:42;;;;;;;27.20;17.67;;;8.80;99.90;;;;;;6159462;23;20092;-84
2023/01/02 13:25:17;;;;;;;23.52;15.68;;;8.80;99.90;;;;;;6177910;23;20017;-83
2023/01/02 13:27:44;;;;;;;39.30;29.05;;;8.80;99.90;;;;;;6185631;23;20021;-84
2023/01/02 13:30:54;;;;;;;18.90;7.85;;;9.60;99.90;;;;;;6159179;23;20013;-84
2023/01/02 13:33:34;;;;;;;28.02;18.58;;;8.80;99.90;;;;;;6039606;23;20097;-83
2023/01/02 13:36:21;;;;;;;13.88;4.03;;;8.80;99.90;;;;;;6152378;23;20079;-83
2023/01/02 13:38:51;;;;;;;11.70;4.70;;;8.80;99.90;;;;;;6185155;23;20020;-83
2023/01/02 13:41:18;;;;;;;14.75;7.63;;;9.80;99.90;;;;;;6183729;23;20044;-86
2023/01/02 13:43:53;;;;;;;13.07;5.75;;;8.80;99.90;;;;;;6185066;23;20017;-84